createdAt,value
2022-12-15T00:02:19.296Z,22.75
2022-12-15T00:05:05.688Z,22.85
2022-12-15T00:07:51.835Z,21.20
2022-12-15T00:10:37.972Z,23.23
2022-12-15T00:13:30.335Z,24.30
2022-12-15T00:16:16.943Z,21.95
2022-12-15T00:19:02.915Z,24.05
2022-12-15T00:21:48.780Z,22.92
2022-12-15T00:24:34.797Z,23.00
2022-12-15T00:27:21.021Z,24.10
2022-12-15T00:30:07.124Z,23.27
2022-12-15T00:32:53.258Z,21.65
2022-12-15T00:35:39.320Z,23.35
2022-12-15T00:38:29.127Z,23.73
2022-12-15T00:40:59.663Z,23.90
2022-12-15T00:43:31.733Z,22.80
2022-12-15T00:46:18.649Z,21.30
2022-12-15T00:48:46.355Z,22.58
2022-12-15T00:51:14.071Z,21.77
2022-12-15T00:54:00.228Z,22.77
2022-12-15T00:56:46.193Z,21.38
2022-12-15T00:59:32.182Z,22.13
2022-12-15T01:02:18.384Z,22.42
2022-12-15T01:05:04.484Z,22.27
2022-12-15T01:07:50.602Z,23.13
2022-12-15T01:10:37.023Z,21.65
2022-12-15T01:13:23.543Z,21.42
2022-12-15T01:16:09.747Z,21.65
2022-12-15T01:18:55.591Z,20.98
2022-12-15T01:21:24.997Z,22.45
2022-12-15T01:23:52.765Z,21.83
2022-12-15T01:26:20.051Z,22.75
2022-12-15T01:28:47.320Z,19.58
2022-12-15T01:31:15.049Z,22.63
2022-12-15T01:33:43.713Z,21.02
2022-12-15T01:36:11.548Z,21.50
2022-12-15T01:38:38.900Z,21.98
2022-12-15T01:41:08.140Z,23.45
2022-12-15T01:43:37.333Z,22.10
2022-12-15T01:46:12.188Z,22.65
2022-12-15T01:48:42.468Z,23.00
2022-12-15T01:51:13.343Z,22.13
2022-12-15T01:53:54.694Z,22.13
2022-12-15T01:56:22.533Z,22.08
2022-12-15T01:58:51.879Z,23.60
2022-12-15T02:01:19.275Z,24.25
2022-12-15T02:03:47.975Z,22.67
2022-12-15T02:06:15.973Z,23.23
2022-12-15T02:08:45.841Z,23.05
2022-12-15T02:11:31.769Z,24.15
2022-12-15T02:14:09.396Z,22.42
2022-12-15T02:16:54.736Z,24.38
2022-12-15T02:19:21.906Z,21.55
2022-12-15T02:21:57.173Z,22.83
2022-12-15T02:24:41.363Z,22.20
2022-12-15T02:27:28.460Z,21.77
2022-12-15T02:30:04.581Z,22.40
2022-12-15T02:32:48.648Z,21.48
2022-12-15T02:35:19.029Z,21.70
2022-12-15T02:37:49.780Z,22.48
2022-12-15T02:40:17.628Z,22.15
2022-12-15T02:42:46.689Z,25.90
2022-12-15T02:45:15.295Z,22.83
2022-12-15T02:47:51.799Z,20.35
2022-12-15T02:50:30.493Z,22.58
2022-12-15T02:53:03.907Z,22.17
2022-12-15T02:55:50.253Z,22.30
2022-12-15T02:58:36.172Z,22.15
2022-12-15T03:01:09.912Z,22.95
2022-12-15T03:03:38.409Z,22.57
2022-12-15T03:06:05.941Z,20.38
2022-12-15T03:08:33.294Z,21.67
2022-12-15T03:11:00.507Z,22.67
2022-12-15T03:13:28.026Z,21.45
2022-12-15T03:15:55.655Z,21.75
2022-12-15T03:18:23.001Z,21.98
2022-12-15T03:20:50.235Z,21.25
2022-12-15T03:23:17.712Z,20.92
2022-12-15T03:25:46.103Z,22.30
2022-12-15T03:28:17.499Z,22.13
2022-12-15T03:30:45.228Z,22.20
2022-12-15T03:33:17.782Z,21.10
2022-12-15T03:35:44.935Z,21.90
2022-12-15T03:38:12.061Z,22.10
2022-12-15T03:40:39.236Z,21.25
2022-12-15T03:43:06.655Z,21.13
2022-12-15T03:45:33.882Z,20.90
2022-12-15T03:48:01.083Z,20.70
2022-12-15T03:50:29.214Z,21.05
2022-12-15T03:52:58.229Z,21.90
2022-12-15T03:55:25.913Z,20.77
2022-12-15T03:57:53.405Z,20.58
2022-12-15T04:00:21.434Z,22.00
2022-12-15T04:02:50.216Z,21.45
2022-12-15T04:05:28.728Z,20.80
2022-12-15T04:07:56.556Z,18.90
2022-12-15T04:10:30.081Z,21.50
2022-12-15T04:13:11.208Z,19.00
2022-12-15T04:15:39.490Z,20.42
2022-12-15T04:18:09.845Z,21.13
2022-12-15T04:20:38.008Z,20.52
2022-12-15T04:23:07.832Z,19.70
2022-12-15T04:25:54.392Z,20.15
2022-12-15T04:28:40.320Z,19.23
2022-12-15T04:31:30.610Z,20.10
2022-12-15T04:34:21.839Z,17.98
2022-12-15T04:37:09.643Z,20.95
2022-12-15T04:39:56.643Z,21.05
2022-12-15T04:42:42.910Z,20.75
2022-12-15T04:45:30.831Z,21.15
2022-12-15T04:48:16.944Z,19.23
2022-12-15T04:51:02.933Z,19.95
2022-12-15T04:53:48.917Z,19.27
2022-12-15T04:56:34.956Z,19.00
2022-12-15T04:59:21.052Z,19.25
2022-12-15T05:02:07.672Z,19.02
2022-12-15T05:04:53.403Z,18.75
2022-12-15T05:07:39.561Z,19.55
2022-12-15T05:10:26.012Z,18.42
2022-12-15T05:13:12.090Z,20.25
2022-12-15T05:15:57.848Z,18.92
2022-12-15T05:18:43.658Z,19.73
2022-12-15T05:21:30.928Z,20.10
2022-12-15T05:24:16.914Z,18.83
2022-12-15T05:27:02.970Z,18.77
2022-12-15T05:29:48.899Z,19.95
2022-12-15T05:32:16.286Z,19.95
2022-12-15T05:34:43.464Z,20.30
2022-12-15T05:37:10.897Z,19.15
2022-12-15T05:39:38.120Z,20.05
2022-12-15T05:42:05.608Z,19.90
2022-12-15T05:44:32.788Z,18.33
2022-12-15T05:46:59.925Z,18.00
2022-12-15T05:49:27.092Z,18.05
2022-12-15T05:51:54.925Z,19.48
2022-12-15T05:54:22.061Z,18.45
2022-12-15T05:56:50.441Z,19.58
2022-12-15T05:59:17.844Z,18.25
2022-12-15T06:01:45.153Z,20.13
2022-12-15T06:04:13.641Z,19.92
2022-12-15T06:06:41.335Z,19.63
2022-12-15T06:09:08.512Z,18.83
2022-12-15T06:11:35.716Z,19.85
2022-12-15T06:14:02.851Z,19.35
2022-12-15T06:16:30.373Z,18.63
2022-12-15T06:18:59.076Z,18.50
2022-12-15T06:21:27.964Z,18.00
2022-12-15T06:23:56.297Z,18.75
2022-12-15T06:26:25.490Z,19.55
2022-12-15T06:28:53.071Z,17.38
2022-12-15T06:31:25.466Z,17.25
2022-12-15T06:34:01.425Z,17.77
2022-12-15T06:36:30.830Z,19.45
2022-12-15T06:39:02.087Z,18.45
2022-12-15T06:41:30.619Z,19.27
2022-12-15T06:43:58.177Z,18.23
2022-12-15T06:46:25.908Z,19.75
2022-12-15T06:48:53.292Z,17.83
2022-12-15T06:51:20.719Z,17.35
2022-12-15T06:53:54.149Z,17.45
2022-12-15T06:56:24.431Z,17.17
2022-12-15T06:58:56.258Z,16.98
2022-12-15T07:01:24.466Z,18.95
2022-12-15T07:03:52.823Z,18.35
2022-12-15T07:06:20.355Z,18.05
2022-12-15T07:08:56.709Z,17.30
2022-12-15T07:11:24.422Z,17.55
2022-12-15T07:13:54.595Z,17.60
2022-12-15T07:16:22.920Z,17.20
2022-12-15T07:18:50.247Z,19.30
2022-12-15T07:21:17.662Z,17.55
2022-12-15T07:23:54.802Z,17.55
2022-12-15T07:26:23.644Z,17.83
2022-12-15T07:28:50.878Z,14.95
2022-12-15T07:31:18.242Z,17.63
2022-12-15T07:33:45.481Z,17.58
2022-12-15T07:36:13.266Z,18.10
2022-12-15T07:38:40.460Z,17.27
2022-12-15T07:41:08.242Z,16.95
2022-12-15T07:43:36.244Z,17.27
2022-12-15T07:46:04.930Z,17.67
2022-12-15T07:48:32.780Z,17.20
2022-12-15T07:51:08.437Z,18.30
2022-12-15T07:53:37.410Z,17.92
2022-12-15T07:56:08.988Z,18.38
2022-12-15T07:58:37.487Z,17.20
2022-12-15T08:01:06.495Z,17.38
2022-12-15T08:03:34.662Z,17.63
2022-12-15T08:06:12.672Z,16.90
2022-12-15T08:08:40.554Z,16.67
2022-12-15T08:11:08.802Z,16.70
2022-12-15T08:16:23.795Z,16.55
2022-12-15T08:18:51.196Z,16.15
2022-12-15T08:21:18.381Z,16.23
2022-12-15T08:23:45.596Z,17.75
2022-12-15T08:26:13.866Z,17.50
2022-12-15T08:28:41.480Z,17.52
2022-12-15T08:31:13.080Z,16.48
2022-12-15T08:33:40.796Z,16.67
2022-12-15T08:36:09.284Z,17.27
2022-12-15T08:38:38.501Z,16.95
2022-12-15T08:41:10.146Z,16.58
2022-12-15T08:43:42.503Z,16.88
2022-12-15T08:46:13.347Z,16.15
2022-12-15T08:48:40.662Z,16.23
2022-12-15T08:51:08.187Z,17.58
2022-12-15T08:53:35.355Z,17.95
2022-12-15T08:56:06.389Z,17.30
2022-12-15T08:58:34.177Z,17.15
2022-12-15T09:01:02.549Z,16.42
2022-12-15T09:03:30.637Z,16.75
2022-12-15T09:06:02.362Z,17.90
2022-12-15T09:08:30.974Z,17.35
2022-12-15T09:10:58.797Z,17.90
2022-12-15T09:13:26.278Z,17.42
2022-12-15T09:16:09.311Z,16.20
2022-12-15T09:18:37.347Z,17.48
2022-12-15T09:21:08.364Z,16.20
2022-12-15T09:23:36.836Z,18.48
2022-12-15T09:26:08.647Z,18.45
2022-12-15T09:28:35.912Z,17.08
2022-12-15T09:31:07.285Z,17.17
2022-12-15T09:33:35.389Z,17.90
2022-12-15T09:36:03.764Z,17.25
2022-12-15T09:38:31.284Z,17.48
2022-12-15T09:40:58.534Z,17.95
2022-12-15T09:43:35.754Z,18.23
2022-12-15T09:46:17.819Z,17.90
2022-12-15T09:48:46.045Z,16.45
2022-12-15T09:51:15.355Z,16.52
2022-12-15T09:53:54.675Z,17.15
2022-12-15T09:56:27.736Z,16.08
2022-12-15T09:59:06.138Z,16.65
2022-12-15T10:01:48.545Z,16.42
2022-12-15T10:04:15.831Z,15.40
2022-12-15T10:06:51.042Z,15.27
2022-12-15T10:09:23.039Z,14.18
2022-12-15T10:11:52.740Z,14.32
2022-12-15T10:14:36.020Z,14.98
2022-12-15T10:17:07.622Z,14.70
2022-12-15T10:19:41.455Z,15.07
2022-12-15T10:22:16.408Z,14.20
2022-12-15T10:27:55.292Z,15.20
2022-12-15T10:30:22.564Z,14.32
2022-12-15T10:32:51.582Z,14.95
2022-12-15T10:35:29.463Z,14.45
2022-12-15T10:38:01.289Z,14.70
2022-12-15T10:40:43.876Z,14.02
2022-12-15T10:43:15.943Z,13.85
2022-12-15T10:45:43.233Z,12.90
2022-12-15T10:48:19.160Z,12.68
2022-12-15T10:50:47.260Z,13.18
2022-12-15T10:53:55.976Z,13.40
2022-12-15T10:56:32.834Z,12.85
2022-12-15T10:59:24.926Z,12.13
2022-12-15T11:01:52.777Z,13.70
2022-12-15T11:04:26.200Z,12.18
2022-12-15T11:06:57.192Z,12.25
2022-12-15T11:09:35.105Z,13.13
2022-12-15T11:12:21.176Z,12.48
2022-12-15T11:14:49.717Z,12.35
2022-12-15T11:17:20.363Z,12.48
2022-12-15T11:19:47.527Z,11.30
2022-12-15T11:22:34.637Z,11.48
2022-12-15T11:25:11.035Z,11.15
2022-12-15T11:27:39.083Z,11.45
2022-12-15T11:30:20.083Z,12.25
2022-12-15T11:32:48.905Z,13.40
2022-12-15T11:35:18.437Z,10.35
2022-12-15T11:37:48.508Z,11.80
2022-12-15T11:40:32.708Z,10.88
2022-12-15T11:43:15.333Z,10.85
2022-12-15T11:45:49.373Z,11.00
2022-12-15T11:48:19.603Z,10.70
2022-12-15T11:50:51.107Z,10.95
2022-12-15T11:53:27.928Z,11.10
2022-12-15T11:56:09.057Z,10.20
2022-12-15T11:58:42.132Z,11.75
2022-12-15T12:01:14.409Z,9.82
2022-12-15T12:03:48.311Z,11.48
2022-12-15T12:06:18.768Z,9.70
2022-12-15T12:09:03.048Z,10.85
2022-12-15T12:11:41.331Z,10.80
2022-12-15T12:14:20.755Z,9.60
2022-12-15T12:17:06.391Z,9.35
2022-12-15T12:20:00.116Z,9.15
2022-12-15T12:22:30.325Z,10.15
2022-12-15T12:25:00.921Z,10.10
2022-12-15T12:27:39.553Z,9.27
2022-12-15T12:30:12.378Z,10.13
2022-12-15T12:33:00.687Z,9.23
2022-12-15T12:35:33.465Z,10.05
2022-12-15T12:38:03.958Z,9.82
2022-12-15T12:40:43.893Z,10.25
2022-12-15T12:43:24.102Z,9.30
2022-12-15T12:45:54.692Z,9.75
2022-12-15T12:48:21.809Z,10.13
2022-12-15T12:50:50.635Z,9.52
2022-12-15T12:53:26.228Z,9.43
2022-12-15T12:55:54.178Z,8.68
2022-12-15T12:58:50.797Z,10.07
2022-12-15T13:01:20.229Z,9.13
2022-12-15T13:04:06.647Z,10.35
2022-12-15T13:06:36.659Z,10.23
2022-12-15T13:09:19.351Z,10.07
2022-12-15T13:11:46.558Z,10.07
2022-12-15T13:14:24.158Z,10.23
2022-12-15T13:17:25.049Z,11.20
2022-12-15T13:19:59.669Z,8.95
2022-12-15T13:22:37.305Z,11.02
2022-12-15T13:25:24.765Z,12.48
2022-12-15T13:27:52.641Z,11.50
2022-12-15T13:30:19.848Z,11.35
2022-12-15T13:32:48.064Z,11.63
2022-12-15T13:35:22.989Z,12.48
2022-12-15T13:37:53.226Z,12.85
2022-12-15T13:40:24.235Z,12.95
2022-12-15T13:43:08.920Z,11.40
2022-12-15T13:45:53.484Z,12.20
2022-12-15T13:48:25.109Z,12.43
2022-12-15T13:50:56.758Z,13.55
2022-12-15T13:53:26.060Z,12.90
2022-12-15T13:55:55.081Z,11.90
2022-12-15T13:58:23.867Z,13.50
2022-12-15T14:00:55.576Z,13.27
2022-12-15T14:03:23.633Z,13.20
2022-12-15T14:05:54.934Z,13.65
2022-12-15T14:08:23.812Z,15.70
2022-12-15T14:10:52.594Z,14.25
2022-12-15T14:13:35.568Z,18.48
2022-12-15T14:16:15.121Z,19.20
2022-12-15T14:18:43.216Z,15.95
2022-12-15T14:21:22.021Z,17.27
2022-12-15T14:24:28.511Z,18.83
2022-12-15T14:26:42.057Z,16.63
2022-12-15T14:29:11.945Z,22.95
2022-12-15T14:31:40.616Z,22.70
2022-12-15T14:34:11.696Z,20.45
2022-12-15T14:36:40.460Z,17.75
2022-12-15T14:39:13.268Z,19.55
2022-12-15T14:41:44.577Z,19.77
2022-12-15T14:44:36.885Z,19.50
2022-12-15T14:47:06.483Z,20.42
2022-12-15T14:49:43.846Z,19.95
2022-12-15T14:52:29.408Z,22.70
2022-12-15T14:54:58.089Z,20.58
2022-12-15T14:57:26.896Z,21.13
2022-12-15T14:59:54.459Z,19.38
2022-12-15T15:02:29.484Z,18.27
2022-12-15T15:05:05.232Z,20.23
2022-12-15T15:07:33.438Z,22.95
2022-12-15T15:10:01.464Z,21.48
2022-12-15T15:12:47.613Z,23.15
2022-12-15T15:15:18.672Z,20.33
2022-12-15T15:17:53.578Z,19.88
2022-12-15T15:23:03.056Z,19.50
2022-12-15T15:25:31.570Z,20.13
2022-12-15T15:28:03.702Z,21.55
2022-12-15T15:30:41.492Z,21.23
2022-12-15T15:33:09.077Z,20.88
2022-12-15T15:35:36.348Z,21.50
2022-12-15T15:38:17.533Z,22.15
2022-12-15T15:40:49.614Z,23.05
2022-12-15T15:43:17.905Z,20.50
2022-12-15T15:45:45.356Z,22.38
2022-12-15T15:48:18.487Z,21.30
2022-12-15T15:50:47.247Z,24.33
2022-12-15T15:53:19.770Z,22.20
2022-12-15T15:55:48.319Z,23.23
2022-12-15T15:58:15.653Z,22.45
2022-12-15T16:00:42.960Z,21.25
2022-12-15T16:03:10.795Z,24.95
2022-12-15T16:05:38.575Z,21.95
2022-12-15T16:08:06.027Z,23.88
2022-12-15T16:10:33.277Z,24.65
2022-12-15T16:13:02.104Z,22.90
2022-12-15T16:15:34.370Z,24.98
2022-12-15T16:18:01.633Z,22.20
2022-12-15T16:20:29.744Z,22.20
2022-12-15T16:23:01.424Z,22.15
2022-12-15T16:25:30.020Z,22.27
2022-12-15T16:28:00.576Z,23.52
2022-12-15T16:30:30.940Z,26.63
2022-12-15T16:32:58.382Z,26.67
2022-12-15T16:35:25.763Z,25.70
2022-12-15T16:37:53.110Z,27.88
2022-12-15T16:40:24.745Z,25.40
2022-12-15T16:42:56.539Z,23.75
2022-12-15T16:45:24.799Z,24.45
2022-12-15T16:47:52.513Z,25.58
2022-12-15T16:50:22.955Z,25.48
2022-12-15T16:52:51.211Z,25.13
2022-12-15T16:55:40.239Z,25.20
2022-12-15T16:58:07.840Z,26.30
2022-12-15T17:00:35.694Z,27.23
2022-12-15T17:03:03.633Z,26.35
2022-12-15T17:05:35.013Z,25.88
2022-12-15T17:08:05.091Z,25.75
2022-12-15T17:10:32.741Z,24.98
2022-12-15T17:13:33.640Z,23.83
2022-12-15T17:16:04.469Z,26.25
2022-12-15T17:18:32.096Z,26.38
2022-12-15T17:21:13.712Z,26.05
2022-12-15T17:23:41.877Z,24.88
2022-12-15T17:26:25.805Z,25.02
2022-12-15T17:28:56.188Z,23.65
2022-12-15T17:31:27.640Z,24.95
2022-12-15T17:33:57.431Z,24.25
2022-12-15T17:36:26.102Z,25.05
2022-12-15T17:38:58.114Z,26.88
2022-12-15T17:41:50.671Z,23.02
2022-12-15T17:44:37.909Z,24.05
2022-12-15T17:47:07.277Z,24.23
2022-12-15T17:49:37.633Z,24.55
2022-12-15T17:52:07.911Z,25.92
2022-12-15T17:54:35.684Z,24.92
2022-12-15T17:57:02.821Z,25.75
2022-12-15T17:59:32.223Z,25.20
2022-12-15T18:01:59.618Z,26.10
2022-12-15T18:04:27.000Z,25.63
2022-12-15T18:06:59.672Z,26.80
2022-12-15T18:09:29.350Z,26.08
2022-12-15T18:11:56.554Z,26.25
2022-12-15T18:14:23.784Z,25.23
2022-12-15T18:16:51.174Z,24.33
2022-12-15T18:19:18.392Z,26.45
2022-12-15T18:21:45.609Z,26.00
2022-12-15T18:24:17.217Z,25.80
2022-12-15T18:26:44.625Z,25.77
2022-12-15T18:29:17.617Z,26.85
2022-12-15T18:31:46.900Z,25.67
2022-12-15T18:34:15.371Z,27.20
2022-12-15T18:36:42.990Z,27.58
2022-12-15T18:39:18.204Z,27.40
2022-12-15T18:41:45.543Z,26.95
2022-12-15T18:44:21.770Z,28.45
2022-12-15T18:46:49.069Z,27.45
2022-12-15T18:49:17.955Z,27.98
2022-12-15T18:51:46.461Z,26.67
2022-12-15T18:54:24.351Z,28.30
2022-12-15T18:56:51.916Z,27.23
2022-12-15T18:59:19.561Z,26.17
2022-12-15T19:01:48.040Z,27.77
2022-12-15T19:04:15.659Z,27.67
2022-12-15T19:06:43.171Z,27.30
2022-12-15T19:09:13.563Z,27.25
2022-12-15T19:11:41.025Z,26.20
2022-12-15T19:14:36.487Z,27.00
2022-12-15T19:17:22.457Z,25.58
2022-12-15T19:20:08.478Z,26.33
2022-12-15T19:22:35.604Z,26.15
2022-12-15T19:25:05.959Z,27.33
2022-12-15T19:27:33.127Z,27.33
2022-12-15T19:30:00.295Z,27.13
2022-12-15T19:32:27.557Z,27.67
2022-12-15T19:34:54.766Z,27.88
2022-12-15T19:37:21.900Z,27.92
2022-12-15T19:39:49.099Z,28.23
2022-12-15T19:42:21.048Z,27.20
2022-12-15T19:44:48.451Z,27.60
2022-12-15T19:47:16.224Z,28.08
2022-12-15T19:49:44.031Z,28.15
2022-12-15T19:52:14.208Z,29.00
2022-12-15T19:54:41.798Z,28.33
2022-12-15T19:57:13.260Z,28.65
2022-12-15T19:59:40.624Z,28.05
2022-12-15T20:02:09.878Z,28.80
2022-12-15T20:04:37.638Z,28.17
2022-12-15T20:07:05.279Z,28.73
2022-12-15T20:09:33.073Z,29.50
2022-12-15T20:12:00.290Z,29.00
2022-12-15T20:14:28.042Z,28.38
2022-12-15T20:16:55.314Z,28.52
2022-12-15T20:19:22.537Z,28.92
2022-12-15T20:21:49.685Z,29.52
2022-12-15T20:24:22.815Z,31.38
2022-12-15T20:26:50.367Z,29.00
2022-12-15T20:29:22.507Z,30.00
2022-12-15T20:31:49.725Z,29.52
2022-12-15T20:34:16.956Z,30.17
2022-12-15T20:36:44.193Z,31.20
2022-12-15T20:39:20.748Z,30.27
2022-12-15T20:41:48.356Z,30.95
2022-12-15T20:44:15.564Z,29.77
2022-12-15T20:46:43.627Z,30.15
2022-12-15T20:49:18.662Z,32.75
2022-12-15T20:51:46.956Z,30.58
2022-12-15T20:54:16.073Z,30.38
2022-12-15T20:56:43.275Z,28.98
2022-12-15T20:59:10.707Z,31.48
2022-12-15T21:01:39.206Z,30.27
2022-12-15T21:04:21.735Z,30.75
2022-12-15T21:06:54.401Z,31.05
2022-12-15T21:09:22.106Z,31.73
2022-12-15T21:11:51.705Z,32.85
2022-12-15T21:14:20.530Z,31.38
2022-12-15T21:16:47.793Z,33.00
2022-12-15T21:20:06.395Z,31.38
2022-12-15T21:22:02.773Z,32.72
2022-12-15T21:24:30.735Z,33.42
2022-12-15T21:26:57.894Z,32.42
2022-12-15T21:29:26.399Z,32.20
2022-12-15T21:31:53.767Z,31.40
2022-12-15T21:34:21.259Z,33.50
2022-12-15T21:36:51.886Z,35.90
2022-12-15T21:39:29.635Z,32.78
2022-12-15T21:41:58.372Z,31.80
2022-12-15T21:44:25.900Z,32.47
2022-12-15T21:46:53.048Z,33.85
2022-12-15T21:49:22.078Z,34.35
2022-12-15T21:51:52.409Z,33.05
2022-12-15T21:54:27.429Z,34.33
2022-12-15T21:56:57.792Z,33.20
2022-12-15T21:59:27.622Z,34.35
2022-12-15T22:01:56.142Z,32.63
2022-12-15T22:04:31.029Z,34.35
2022-12-15T22:06:58.292Z,33.47
2022-12-15T22:09:25.474Z,33.17
2022-12-15T22:11:54.012Z,34.42
2022-12-15T22:14:34.527Z,33.95
2022-12-15T22:17:09.587Z,33.60
2022-12-15T22:19:36.744Z,32.53
2022-12-15T22:22:03.884Z,33.85
2022-12-15T22:24:31.020Z,34.65
2022-12-15T22:26:58.454Z,36.63
2022-12-15T22:29:26.723Z,32.80
2022-12-15T22:31:55.035Z,36.03
2022-12-15T22:34:23.791Z,33.33
2022-12-15T22:36:51.803Z,33.05
2022-12-15T22:39:19.722Z,33.92
2022-12-15T22:41:48.254Z,36.35
2022-12-15T22:44:26.066Z,36.33
2022-12-15T22:46:54.857Z,34.83
2022-12-15T22:49:22.976Z,35.42
2022-12-15T22:51:50.382Z,36.80
2022-12-15T22:54:17.931Z,29.65
2022-12-15T22:56:45.466Z,36.13
2022-12-15T22:59:18.377Z,38.47
2022-12-15T23:01:46.075Z,37.72
2022-12-15T23:04:14.364Z,38.63
2022-12-15T23:06:41.841Z,36.88
2022-12-15T23:09:09.237Z,38.00
2022-12-15T23:11:39.413Z,36.90
2022-12-15T23:14:07.958Z,36.83
2022-12-15T23:16:35.260Z,36.47
2022-12-15T23:19:02.871Z,38.13
2022-12-15T23:21:30.565Z,36.90
2022-12-15T23:23:57.858Z,37.08
2022-12-15T23:26:26.024Z,36.08
2022-12-15T23:28:53.862Z,36.70
2022-12-15T23:31:22.692Z,38.33
2022-12-15T23:33:52.202Z,36.70
2022-12-15T23:36:19.765Z,37.03
2022-12-15T23:38:47.020Z,36.72
2022-12-15T23:41:18.554Z,37.25
2022-12-15T23:43:45.739Z,38.33
2022-12-15T23:46:13.121Z,38.38
2022-12-15T23:48:42.025Z,38.22
2022-12-15T23:51:13.666Z,37.38
2022-12-15T23:53:41.376Z,38.15
2022-12-15T23:56:22.063Z,37.72
2022-12-15T23:58:54.520Z,38.60
